< < Back
Terminal Aerodrome Forecast


Current Version              Previous Versions:   1  2  3  4  5  6  7  8  9  

Terminal Aerodrome Forecast

216
FTUS42 KCAE 290233 AAC
TAFCAE
TAF AMD
KCAE 290233Z 2903/2924 VRB03KT P6SM BKN120
     FM291000 VRB03KT 4SM BR SCT015
     FM291300 VRB04KT P6SM SCT025
     FM292000 09006KT P6SM SCT040=

Latest METAR

888
SAUS80 KWBC 291300
MTRCAE
METAR KCAE 291256Z 00000KT 10SM BKN055 27/22 A3001 RMK AO2 SLP159
T02670222


USA.gov is the U.S. government's official web portal to all federal, state and local government web resources and services.